Time;durP1;ratioP1;P1;durP2;ratioP2;P2;SDS_P1;SDS_P2;PMS_P1;PMS_P2;Temp;Humidity;BMP_temperature;BMP_pressure;BME280_temperature;BME280_humidity;BME280_pressure;Samples;Min_cycle;Max_cycle;Signal;HPM_P1;HPM_P2
2022/09/08 00:00:49;;;;;;;14.52;12.40;;;19.10;99.90;;;;;;4976582;28;20113;-74
2022/09/08 00:03:17;;;;;;;14.32;13.02;;;19.00;99.90;;;;;;4976826;28;20042;-74
2022/09/08 00:05:57;;;;;;;14.77;13.25;;;19.00;99.90;;;;;;4976821;28;20518;-74
2022/09/08 00:08:24;;;;;;;14.98;13.57;;;19.00;99.90;;;;;;4977074;28;20065;-74
2022/09/08 00:10:55;;;;;;;15.27;13.68;;;19.00;99.90;;;;;;4976443;28;20574;-74
2022/09/08 00:13:22;;;;;;;14.27;12.88;;;19.00;99.90;;;;;;4976475;28;20043;-74
2022/09/08 00:15:47;;;;;;;16.02;14.52;;;18.90;99.90;;;;;;4976422;28;20521;-74
2022/09/08 00:18:13;;;;;;;15.90;14.35;;;19.00;99.90;;;;;;4977664;28;20121;-74
2022/09/08 00:20:39;;;;;;;17.23;15.63;;;18.90;99.90;;;;;;4976297;28;20573;-74
2022/09/08 00:23:05;;;;;;;16.15;14.43;;;19.00;99.90;;;;;;4976517;28;20121;-74
2022/09/08 00:25:30;;;;;;;16.27;14.52;;;18.90;99.90;;;;;;4976343;28;20093;-74
2022/09/08 00:27:56;;;;;;;16.70;15.00;;;18.90;99.90;;;;;;4960806;28;20137;-74
2022/09/08 00:30:21;;;;;;;17.85;16.00;;;18.90;99.90;;;;;;4993530;28;20046;-74
2022/09/08 00:32:47;;;;;;;18.13;16.23;;;18.90;99.90;;;;;;4993703;28;20038;-74
2022/09/08 00:35:18;;;;;;;16.80;15.18;;;18.90;99.90;;;;;;4993719;28;20044;-74
2022/09/08 00:37:43;;;;;;;17.48;15.70;;;18.80;99.90;;;;;;4976144;28;20495;-74
2022/09/08 00:40:09;;;;;;;18.42;16.55;;;18.80;99.90;;;;;;4976446;28;20046;-74
2022/09/08 00:42:35;;;;;;;18.88;17.13;;;18.90;99.90;;;;;;4976450;28;20582;-74
2022/09/08 00:45:01;;;;;;;17.63;15.85;;;18.80;99.90;;;;;;4976399;28;20042;-74
2022/09/08 00:47:33;;;;;;;18.13;16.33;;;18.80;99.90;;;;;;4976017;28;20408;-74
2022/09/08 00:50:01;;;;;;;17.52;15.95;;;18.80;99.90;;;;;;4976159;28;20122;-74
2022/09/08 00:52:45;;;;;;;17.83;16.00;;;18.80;99.90;;;;;;4976066;28;20506;-74
2022/09/08 00:55:12;;;;;;;18.95;16.85;;;18.80;99.90;;;;;;4978944;28;20077;-74
2022/09/08 00:57:38;;;;;;;19.08;17.27;;;18.80;99.90;;;;;;4979798;28;20046;-74
2022/09/08 01:00:07;;;;;;;18.25;16.63;;;18.80;99.90;;;;;;4979701;28;20077;-74
2022/09/08 01:02:33;;;;;;;19.02;17.30;;;18.80;99.90;;;;;;4979515;28;20124;-74
2022/09/08 01:05:03;;;;;;;19.60;17.80;;;18.80;99.90;;;;;;4979712;28;20133;-74
2022/09/08 01:13:10;;;;;;;19.35;17.63;;;18.90;99.90;;;;;;4979430;28;20050;-74
2022/09/08 01:15:35;;;;;;;18.98;17.23;;;18.80;99.90;;;;;;4963252;28;20101;-74
2022/09/08 01:18:01;;;;;;;19.50;17.75;;;18.90;99.90;;;;;;4979224;28;20042;-74
2022/09/08 01:20:37;;;;;;;19.50;17.52;;;18.90;99.90;;;;;;4979582;28;20042;-74
2022/09/08 01:23:12;;;;;;;20.60;18.45;;;18.90;99.90;;;;;;4996898;28;20070;-74
2022/09/08 01:26:11;;;;;;;20.88;19.17;;;18.90;99.90;;;;;;4996880;28;20045;-74
2022/09/08 01:29:12;;;;;;;20.08;18.13;;;19.00;99.90;;;;;;4990090;28;20503;-74
2022/09/08 01:31:40;;;;;;;20.35;18.40;;;19.00;99.90;;;;;;4992519;28;20055;-74
2022/09/08 01:34:07;;;;;;;20.20;18.40;;;18.90;99.90;;;;;;4979257;28;20039;-74
2022/09/08 01:36:32;;;;;;;20.73;18.75;;;19.00;99.90;;;;;;4996405;28;20030;-74
2022/09/08 01:38:58;;;;;;;21.40;19.15;;;19.00;99.90;;;;;;4996900;28;20553;-74
2022/09/08 01:41:23;;;;;;;20.25;18.35;;;19.00;99.90;;;;;;4962902;28;20554;-73
2022/09/08 01:43:49;;;;;;;20.67;18.65;;;19.00;99.90;;;;;;4996493;28;20049;-74
2022/09/08 01:46:15;;;;;;;19.90;17.92;;;19.00;99.90;;;;;;4996444;28;20053;-74
2022/09/08 01:48:40;;;;;;;20.98;19.08;;;19.00;99.90;;;;;;4978888;28;20043;-74
2022/09/08 01:51:07;;;;;;;21.52;19.63;;;19.00;99.90;;;;;;4963554;28;20045;-74
2022/09/08 01:53:34;;;;;;;22.25;20.23;;;19.00;99.90;;;;;;4996172;28;20486;-74
2022/09/08 01:56:00;;;;;;;20.90;18.83;;;19.00;99.90;;;;;;4996047;28;20042;-74
2022/09/08 01:58:25;;;;;;;21.67;19.67;;;19.00;99.90;;;;;;4996016;28;20038;-74
2022/09/08 02:00:51;;;;;;;24.83;22.33;;;19.00;99.90;;;;;;4996326;28;20064;-74
2022/09/08 02:03:17;;;;;;;21.63;19.83;;;19.00;99.90;;;;;;4962544;28;20042;-74
2022/09/08 02:05:44;;;;;;;21.50;19.50;;;19.00;99.90;;;;;;4994990;28;20089;-74
2022/09/08 02:08:10;;;;;;;21.67;19.48;;;19.00;99.90;;;;;;4995674;28;20557;-74
2022/09/08 02:10:37;;;;;;;22.77;20.70;;;19.00;99.90;;;;;;4995635;28;20499;-74
2022/09/08 02:13:03;;;;;;;23.02;20.88;;;19.10;99.90;;;;;;4995935;28;20061;-74
2022/09/08 02:15:30;;;;;;;24.17;21.88;;;19.10;99.90;;;;;;4995907;28;20053;-74
2022/09/08 02:17:57;;;;;;;22.65;20.48;;;19.10;99.90;;;;;;4995847;28;20042;-74
2022/09/08 02:20:23;;;;;;;24.38;22.15;;;19.10;99.90;;;;;;4995930;28;20034;-74
2022/09/08 02:22:48;;;;;;;22.60;20.63;;;19.10;99.90;;;;;;4978133;28;20410;-74
2022/09/08 02:25:14;;;;;;;23.85;21.55;;;19.00;99.90;;;;;;4995940;28;20042;-74
2022/09/08 02:27:40;;;;;;;23.70;21.40;;;19.00;99.90;;;;;;4962243;28;20569;-74
2022/09/08 02:30:07;;;;;;;23.10;21.10;;;19.00;99.90;;;;;;4977824;28;20038;-74
2022/09/08 02:32:34;;;;;;;24.88;22.25;;;19.00;99.90;;;;;;4977924;28;20414;-74
2022/09/08 02:35:00;;;;;;;24.70;22.42;;;19.00;99.90;;;;;;4995489;28;20050;-74
2022/09/08 02:37:25;;;;;;;23.55;21.25;;;19.00;99.90;;;;;;4995250;28;20045;-74
2022/09/08 02:39:51;;;;;;;25.63;23.25;;;19.00;99.90;;;;;;4995190;28;20422;-74
2022/09/08 02:42:16;;;;;;;22.88;20.98;;;19.00;99.90;;;;;;4977882;28;20384;-74
2022/09/08 02:44:42;;;;;;;24.15;21.70;;;19.00;99.90;;;;;;4995326;28;20414;-74
2022/09/08 02:47:08;;;;;;;25.08;22.70;;;19.00;99.90;;;;;;4995297;28;20089;-74
2022/09/08 02:49:34;;;;;;;24.88;22.58;;;19.00;99.90;;;;;;4995299;28;20042;-74
2022/09/08 02:52:00;;;;;;;24.75;22.23;;;19.00;99.90;;;;;;4995181;28;20100;-74
2022/09/08 02:54:25;;;;;;;25.38;22.88;;;19.00;99.90;;;;;;4977986;28;20117;-74
2022/09/08 02:56:51;;;;;;;25.15;22.83;;;19.00;99.90;;;;;;4995078;28;20114;-73
2022/09/08 02:59:17;;;;;;;26.10;23.80;;;19.00;99.90;;;;;;4961606;28;20065;-73
2022/09/08 03:01:46;;;;;;;25.55;23.08;;;19.00;99.90;;;;;;4995014;28;20491;-73
2022/09/08 03:04:12;;;;;;;25.30;22.98;;;18.90;99.90;;;;;;4977281;28;20134;-73
2022/09/08 03:06:38;;;;;;;26.10;23.40;;;18.90;99.90;;;;;;4994890;28;20113;-74
2022/09/08 03:09:05;;;;;;;26.33;23.92;;;19.00;99.90;;;;;;4977106;28;20097;-74
2022/09/08 03:11:31;;;;;;;27.30;24.90;;;18.90;99.90;;;;;;4977119;28;20121;-74
2022/09/08 03:13:58;;;;;;;26.23;23.77;;;18.90;99.90;;;;;;4994736;28;20121;-74
2022/09/08 03:16:25;;;;;;;25.67;23.33;;;18.90;99.90;;;;;;4961184;28;20132;-74
2022/09/08 03:18:51;;;;;;;25.58;23.27;;;18.90;99.90;;;;;;4993636;28;20030;-74
2022/09/08 03:21:16;;;;;;;25.98;23.50;;;18.90;99.90;;;;;;4961099;28;20389;-74
2022/09/08 03:23:42;;;;;;;25.35;22.95;;;18.90;99.90;;;;;;4994573;28;20057;-74
2022/09/08 03:26:20;;;;;;;24.90;22.70;;;18.90;99.90;;;;;;4994553;28;20042;-74
2022/09/08 03:28:46;;;;;;;25.35;23.05;;;19.00;99.90;;;;;;4994600;28;20126;-74
2022/09/08 03:31:15;;;;;;;25.80;23.50;;;18.90;99.90;;;;;;4994660;28;20074;-74
2022/09/08 03:33:41;;;;;;;25.50;23.00;;;18.90;99.90;;;;;;4994542;28;20088;-74
2022/09/08 03:36:08;;;;;;;25.50;23.30;;;18.90;99.90;;;;;;4976709;28;20042;-74
2022/09/08 03:38:35;;;;;;;24.52;22.33;;;18.90;99.90;;;;;;4992903;28;20499;-74
2022/09/08 03:41:05;;;;;;;26.08;23.67;;;18.90;99.90;;;;;;4976824;28;20100;-74
2022/09/08 03:43:30;;;;;;;25.48;23.08;;;18.90;99.90;;;;;;4994558;28;20070;-74
2022/09/08 03:45:56;;;;;;;25.35;22.77;;;18.90;99.90;;;;;;4976706;28;20466;-74
2022/09/08 03:48:21;;;;;;;25.60;23.25;;;18.90;99.90;;;;;;4960598;28;20054;-74
2022/09/08 03:50:47;;;;;;;26.60;23.92;;;19.00;99.90;;;;;;4976734;28;20065;-74
2022/09/08 03:53:13;;;;;;;24.90;22.52;;;18.90;99.90;;;;;;4994186;28;20045;-74
2022/09/08 03:55:40;;;;;;;23.67;21.48;;;19.00;99.90;;;;;;4976601;28;20038;-74
2022/09/08 03:58:06;;;;;;;25.02;22.48;;;19.00;99.90;;;;;;4994228;28;20045;-74
2022/09/08 04:00:32;;;;;;;25.10;22.77;;;19.00;99.90;;;;;;4994232;28;20034;-74
2022/09/08 04:02:58;;;;;;;24.02;21.73;;;19.00;99.90;;;;;;4976597;28;20495;-74
2022/09/08 04:05:23;;;;;;;24.15;22.00;;;18.90;99.90;;;;;;4993944;28;20042;-74
2022/09/08 04:07:49;;;;;;;24.30;22.10;;;19.00;99.90;;;;;;4994171;28;20510;-74
2022/09/08 04:10:17;;;;;;;24.67;22.48;;;19.00;99.90;;;;;;4993953;28;20491;-74
2022/09/08 04:12:43;;;;;;;25.30;23.00;;;18.90;99.90;;;;;;4992881;28;20100;-74
2022/09/08 04:15:09;;;;;;;24.90;22.60;;;19.00;99.90;;;;;;4976444;28;20082;-74
2022/09/08 04:17:35;;;;;;;24.85;22.63;;;18.90;99.90;;;;;;4976406;28;20046;-74
2022/09/08 04:20:01;;;;;;;25.40;23.00;;;18.90;99.90;;;;;;4976639;28;20435;-74
2022/09/08 04:22:27;;;;;;;26.95;24.50;;;18.90;99.90;;;;;;4976609;28;20165;-74
2022/09/08 04:24:52;;;;;;;27.67;25.17;;;18.90;99.90;;;;;;4976302;28;20507;-74
2022/09/08 04:27:19;;;;;;;28.95;26.27;;;18.90;99.90;;;;;;4994376;28;20489;-74
2022/09/08 04:29:44;;;;;;;30.42;27.58;;;18.80;99.90;;;;;;4978600;28;20125;-74
2022/09/08 04:32:11;;;;;;;29.73;26.92;;;18.80;99.90;;;;;;4997648;28;20093;-74
2022/09/08 04:34:36;;;;;;;31.15;28.33;;;18.80;99.90;;;;;;4997921;28;20038;-74
2022/09/08 04:37:03;;;;;;;29.30;26.40;;;18.70;99.90;;;;;;4997521;28;20053;-74
2022/09/08 04:39:29;;;;;;;28.13;25.48;;;18.70;99.90;;;;;;4997598;28;20042;-74
2022/09/08 04:41:55;;;;;;;28.20;25.73;;;18.70;99.90;;;;;;4980130;28;20130;-74
2022/09/08 04:44:20;;;;;;;30.45;27.65;;;18.70;99.90;;;;;;4997495;28;20042;-74
2022/09/08 04:46:47;;;;;;;30.67;27.75;;;18.60;99.90;;;;;;4979888;28;20073;-74
2022/09/08 04:49:12;;;;;;;31.83;28.83;;;18.60;99.90;;;;;;4963737;28;20042;-74
2022/09/08 04:51:39;;;;;;;32.70;29.50;;;18.60;99.90;;;;;;4979872;28;20450;-74
2022/09/08 04:54:05;;;;;;;32.40;29.45;;;18.50;99.90;;;;;;4997499;28;20069;-74
2022/09/08 04:56:32;;;;;;;33.05;29.83;;;18.50;99.90;;;;;;4979963;28;20046;-74
2022/09/08 04:58:59;;;;;;;32.65;29.55;;;18.50;99.90;;;;;;4980011;28;20565;-74
2022/09/08 05:01:31;;;;;;;33.85;30.60;;;18.50;99.90;;;;;;4979912;28;20049;-74
2022/09/08 05:04:00;;;;;;;32.20;29.30;;;18.50;99.90;;;;;;4997350;28;20042;-74
2022/09/08 05:06:26;;;;;;;32.67;29.83;;;18.40;99.90;;;;;;4997484;28;20395;-74
2022/09/08 05:08:55;;;;;;;33.35;30.42;;;18.40;99.90;;;;;;4996886;28;20047;-74
2022/09/08 05:11:22;;;;;;;34.75;31.35;;;18.30;99.90;;;;;;4979536;28;20046;-74
2022/09/08 05:13:49;;;;;;;33.25;30.02;;;18.30;99.90;;;;;;4979687;28;20085;-74
2022/09/08 05:16:20;;;;;;;34.80;31.58;;;18.30;99.90;;;;;;4979264;28;20053;-74
2022/09/08 05:18:48;;;;;;;34.28;31.17;;;18.30;99.90;;;;;;4979348;28;20043;-74
2022/09/08 05:21:14;;;;;;;33.17;29.98;;;18.30;99.90;;;;;;4979321;28;20411;-73
2022/09/08 05:23:40;;;;;;;34.28;31.27;;;18.30;99.90;;;;;;4979652;28;20133;-73
2022/09/08 05:26:07;;;;;;;33.75;30.45;;;18.30;99.90;;;;;;4996621;28;20057;-74
2022/09/08 05:28:36;;;;;;;32.60;29.60;;;18.40;99.90;;;;;;4979135;28;20450;-74
2022/09/08 05:31:02;;;;;;;33.75;30.73;;;18.40;99.90;;;;;;4996780;28;20479;-74
2022/09/08 05:33:27;;;;;;;34.55;31.48;;;18.40;99.90;;;;;;4979027;28;20046;-74
2022/09/08 05:35:53;;;;;;;33.35;30.33;;;18.40;99.90;;;;;;4996636;28;20034;-74
2022/09/08 05:38:20;;;;;;;34.75;31.55;;;18.40;99.90;;;;;;4978982;28;20557;-74
2022/09/08 05:40:45;;;;;;;32.42;29.55;;;18.40;99.90;;;;;;4978133;28;20490;-74
2022/09/08 05:43:11;;;;;;;33.00;30.08;;;18.40;99.90;;;;;;4996338;28;20069;-74
2022/09/08 05:45:36;;;;;;;34.95;31.55;;;18.40;99.90;;;;;;4979699;28;20046;-74
2022/09/08 05:48:03;;;;;;;34.67;31.30;;;18.40;99.90;;;;;;4996277;28;20073;-74
2022/09/08 05:50:34;;;;;;;34.13;30.92;;;18.40;99.90;;;;;;4978775;28;20038;-74
2022/09/08 05:53:02;;;;;;;35.28;31.98;;;18.40;99.90;;;;;;4979127;28;20093;-74
2022/09/08 05:55:29;;;;;;;37.58;33.78;;;18.40;99.90;;;;;;4978659;28;20056;-74
2022/09/08 05:57:56;;;;;;;37.35;33.95;;;18.40;99.90;;;;;;4996159;28;20085;-74
2022/09/08 06:00:22;;;;;;;33.72;30.58;;;18.40;99.90;;;;;;4995999;28;20046;-74
2022/09/08 06:02:51;;;;;;;34.05;31.02;;;18.40;99.90;;;;;;4995973;28;20084;-74
2022/09/08 06:05:19;;;;;;;35.65;32.15;;;18.30;99.90;;;;;;4978846;28;20077;-74
2022/09/08 06:07:46;;;;;;;40.55;34.83;;;18.30;99.90;;;;;;4996217;28;20041;-74
2022/09/08 06:10:13;;;;;;;63.38;39.80;;;18.30;99.90;;;;;;4978610;28;20081;-74
2022/09/08 06:12:39;;;;;;;46.47;39.42;;;18.30;99.90;;;;;;4978535;28;20049;-75
2022/09/08 06:15:05;;;;;;;50.67;40.08;;;18.20;99.90;;;;;;4978673;28;20046;-75
2022/09/08 06:17:31;;;;;;;40.75;36.63;;;18.20;99.90;;;;;;4978363;28;20043;-75
2022/09/08 06:19:57;;;;;;;40.42;36.45;;;18.20;99.90;;;;;;4978476;28;20050;-75
2022/09/08 06:22:23;;;;;;;38.45;34.80;;;18.20;99.90;;;;;;4978461;28;20513;-75
2022/09/08 06:24:48;;;;;;;34.55;31.15;;;18.20;99.90;;;;;;4978829;28;20046;-75
2022/09/08 06:27:31;;;;;;;35.00;31.67;;;18.20;99.90;;;;;;4978437;28;20077;-75
2022/09/08 06:30:08;;;;;;;29.98;27.13;;;18.20;99.90;;;;;;4978387;28;20047;-75
2022/09/08 06:32:40;;;;;;;34.08;30.77;;;18.20;99.90;;;;;;4978141;28;20042;-75
2022/09/08 06:35:10;;;;;;;40.75;31.88;;;18.20;99.90;;;;;;4977920;28;20049;-75
2022/09/08 06:37:42;;;;;;;33.45;30.10;;;18.20;99.90;;;;;;4978100;28;20060;-75
2022/09/08 06:40:35;;;;;;;34.58;31.02;;;18.20;99.90;;;;;;4977937;28;20450;-75
2022/09/08 06:43:10;;;;;;;35.13;31.75;;;18.20;99.90;;;;;;4977897;28;20039;-75
2022/09/08 06:45:42;;;;;;;36.92;33.28;;;18.20;99.90;;;;;;4978130;28;20054;-75
2022/09/08 06:48:19;;;;;;;37.30;33.80;;;18.20;99.90;;;;;;4977661;28;20060;-75
2022/09/08 06:51:11;;;;;;;39.08;35.47;;;18.20;99.90;;;;;;4978140;28;20042;-75
2022/09/08 06:54:02;;;;;;;39.60;35.95;;;18.20;99.90;;;;;;4967985;28;20058;-75
2022/09/08 06:56:39;;;;;;;36.15;32.85;;;18.20;99.90;;;;;;4941732;28;20050;-75
2022/09/08 06:59:50;;;;;;;36.85;33.40;;;18.20;99.90;;;;;;4977836;28;20418;-75
2022/09/08 07:02:40;;;;;;;38.70;34.78;;;18.10;99.90;;;;;;4900392;29;20067;-74
2022/09/08 07:05:45;;;;;;;39.70;35.53;;;18.10;99.90;;;;;;4900672;29;20115;-74
2022/09/08 07:08:16;;;;;;;39.80;34.97;;;18.10;99.90;;;;;;4879088;29;20058;-75
2022/09/08 07:11:00;;;;;;;38.15;34.30;;;18.00;99.90;;;;;;4900034;29;20040;-75
2022/09/08 07:13:39;;;;;;;46.13;34.53;;;18.10;99.90;;;;;;4884416;29;20056;-75
2022/09/08 07:16:19;;;;;;;35.72;29.70;;;18.00;99.90;;;;;;4900114;29;20127;-75
2022/09/08 07:19:24;;;;;;;30.98;27.15;;;18.00;99.90;;;;;;4900129;29;20056;-74
2022/09/08 07:22:15;;;;;;;35.08;31.40;;;18.00;99.90;;;;;;4899681;29;20106;-74
2022/09/08 07:24:43;;;;;;;39.17;35.28;;;18.00;99.90;;;;;;4899934;29;20056;-74
2022/09/08 07:27:13;;;;;;;39.85;35.90;;;17.90;99.90;;;;;;4899891;29;20103;-74
2022/09/08 07:29:43;;;;;;;43.95;39.25;;;18.00;99.90;;;;;;4899530;29;20136;-74
2022/09/08 07:32:17;;;;;;;44.60;38.65;;;17.90;99.90;;;;;;4899750;29;20055;-74
2022/09/08 07:34:51;;;;;;;37.65;34.15;;;17.90;99.90;;;;;;4884163;29;20167;-75
2022/09/08 07:37:42;;;;;;;37.05;33.53;;;18.00;99.90;;;;;;4902913;28;20071;-75
2022/09/08 07:40:43;;;;;;;37.83;32.20;;;18.00;99.90;;;;;;4976961;28;20070;-74
2022/09/08 07:43:11;;;;;;;35.13;31.55;;;17.90;99.90;;;;;;4935852;28;20061;-75
2022/09/08 07:46:02;;;;;;;33.60;30.30;;;17.90;99.90;;;;;;4960546;28;20052;-75
2022/09/08 07:48:57;;;;;;;36.72;32.83;;;17.90;99.90;;;;;;4976478;28;20042;-75
2022/09/08 07:51:30;;;;;;;33.97;30.45;;;17.90;99.90;;;;;;4970059;28;20526;-74
2022/09/08 07:54:18;;;;;;;34.03;30.52;;;17.90;99.90;;;;;;4976796;28;20054;-75
2022/09/08 07:56:50;;;;;;;36.67;33.03;;;17.90;99.90;;;;;;4976649;28;20038;-75
2022/09/08 07:59:19;;;;;;;35.92;32.33;;;17.90;99.90;;;;;;4976555;28;20636;-75
2022/09/08 08:02:19;;;;;;;37.90;34.28;;;17.90;99.90;;;;;;4960259;28;20049;-75
2022/09/08 08:04:59;;;;;;;38.40;34.63;;;17.90;99.90;;;;;;4944479;28;20054;-75
2022/09/08 08:07:34;;;;;;;37.05;33.55;;;17.90;99.90;;;;;;4976311;28;20045;-75
2022/09/08 08:10:16;;;;;;;38.53;34.47;;;17.90;99.90;;;;;;4976335;28;20051;-75
2022/09/08 08:13:00;;;;;;;40.20;35.95;;;17.90;99.90;;;;;;4976399;28;20046;-75
2022/09/08 08:15:45;;;;;;;40.95;36.60;;;17.90;99.90;;;;;;4976341;28;20049;-75
2022/09/08 08:18:32;;;;;;;41.60;37.20;;;17.90;99.90;;;;;;4976179;28;20054;-75
2022/09/08 08:21:05;;;;;;;38.72;35.03;;;17.90;99.90;;;;;;4976266;28;20121;-75
2022/09/08 08:23:45;;;;;;;38.40;34.53;;;17.90;99.90;;;;;;4976196;28;20057;-75
2022/09/08 08:26:29;;;;;;;39.95;35.85;;;17.90;99.90;;;;;;4976498;28;20038;-75
2022/09/08 08:29:26;;;;;;;40.38;36.15;;;17.90;99.90;;;;;;4976055;28;20043;-75
2022/09/08 08:32:34;;;;;;;41.92;37.33;;;17.90;99.90;;;;;;4976922;28;20034;-75
2022/09/08 08:35:13;;;;;;;47.28;40.35;;;17.80;99.90;;;;;;4966021;28;20042;-75
2022/09/08 08:37:40;;;;;;;41.08;36.60;;;17.80;99.90;;;;;;4975917;28;20100;-75
2022/09/08 08:40:36;;;;;;;47.45;38.95;;;17.80;99.90;;;;;;4976377;28;20049;-75
2022/09/08 08:43:22;;;;;;;41.70;36.55;;;17.80;99.90;;;;;;4959973;28;20430;-75
2022/09/08 08:46:00;;;;;;;37.20;33.28;;;17.70;99.90;;;;;;4976376;28;20065;-75
2022/09/08 08:48:44;;;;;;;33.22;29.08;;;17.70;99.90;;;;;;4976094;28;20121;-75
2022/09/08 08:51:22;;;;;;;31.90;28.63;;;17.70;99.90;;;;;;4976050;28;20410;-75
2022/09/08 08:54:15;;;;;;;33.00;26.02;;;17.70;99.90;;;;;;4976075;28;20046;-75
2022/09/08 08:56:57;;;;;;;;;;;17.80;99.90;;;;;;4976293;28;20415;-75
2022/09/08 08:59:54;;;;;;;25.77;22.00;;;17.70;99.90;;;;;;4976066;28;19917;-75
2022/09/08 09:02:50;;;;;;;19.67;15.65;;;17.70;99.90;;;;;;4976063;28;20042;-75
2022/09/08 09:05:47;;;;;;;19.60;17.15;;;17.80;99.90;;;;;;4975933;28;20046;-75
2022/09/08 09:08:48;;;;;;;18.02;13.27;;;17.80;99.90;;;;;;4976085;28;20097;-75
2022/09/08 09:11:43;;;;;;;14.85;12.93;;;17.80;99.90;;;;;;4951654;28;20061;-75
2022/09/08 09:14:43;;;;;;;16.02;12.85;;;17.90;99.90;;;;;;4975813;28;20050;-75
2022/09/08 09:17:30;;;;;;;13.82;11.65;;;17.90;99.90;;;;;;4914592;28;20047;-75
2022/09/08 09:20:29;;;;;;;16.02;12.25;;;17.90;99.90;;;;;;4979345;28;20129;-75
2022/09/08 09:23:10;;;;;;;17.55;12.02;;;17.90;99.90;;;;;;4979402;28;20046;-74
2022/09/08 09:25:39;;;;;;;13.18;10.73;;;17.90;99.90;;;;;;4979451;28;20073;-74
2022/09/08 09:28:29;;;;;;;14.85;11.00;;;17.90;99.90;;;;;;4979031;28;20046;-75
2022/09/08 09:31:26;;;;;;;16.70;11.32;;;18.00;99.90;;;;;;4979101;28;20080;-75
2022/09/08 09:34:23;;;;;;;12.63;9.05;;;18.00;99.90;;;;;;4980130;28;20042;-75
2022/09/08 09:37:26;;;;;;;17.13;9.68;;;17.90;99.90;;;;;;4978876;28;20121;-75
2022/09/08 09:40:11;;;;;;;11.57;7.53;;;17.90;99.90;;;;;;4978807;28;20050;-75
2022/09/08 09:42:57;;;;;;;11.27;8.20;;;17.90;99.90;;;;;;4978906;28;20049;-75
2022/09/08 09:45:51;;;;;;;12.38;8.18;;;17.90;99.90;;;;;;4978909;28;20537;-75
2022/09/08 09:48:27;;;;;;;9.05;6.90;;;17.90;99.90;;;;;;4978782;28;20097;-75
2022/09/08 09:51:13;;;;;;;9.18;6.32;;;17.90;99.90;;;;;;4979024;28;20089;-75
2022/09/08 09:54:09;;;;;;;10.98;7.28;;;17.90;99.90;;;;;;4978976;28;20049;-75
2022/09/08 09:57:08;;;;;;;9.07;6.00;;;17.90;99.90;;;;;;4962420;28;20054;-75
2022/09/08 10:00:08;;;;;;;9.95;5.80;;;17.80;99.90;;;;;;4962586;28;20517;-75
2022/09/08 10:02:45;;;;;;;7.80;5.05;;;17.90;99.90;;;;;;4978448;28;20043;-75
2022/09/08 10:05:56;;;;;;;8.45;4.70;;;17.80;99.90;;;;;;4978440;28;20046;-74
2022/09/08 10:08:53;;;;;;;9.02;3.67;;;17.80;99.90;;;;;;4978572;28;20068;-75
2022/09/08 10:11:56;;;;;;;5.70;2.92;;;17.80;99.90;;;;;;4962162;28;20547;-75
2022/09/08 10:14:43;;;;;;;6.90;3.45;;;17.80;99.90;;;;;;4978131;28;20049;-74
2022/09/08 10:17:35;;;;;;;7.38;2.95;;;17.80;99.90;;;;;;4978362;28;20042;-74
2022/09/08 10:20:34;;;;;;;4.88;2.67;;;17.80;99.90;;;;;;4978069;28;20534;-74
2022/09/08 10:23:30;;;;;;;4.03;2.70;;;17.80;99.90;;;;;;4917965;28;20046;-74
2022/09/08 10:26:43;;;;;;;4.53;2.75;;;17.80;99.90;;;;;;4977721;28;20049;-75
2022/09/08 10:29:43;;;;;;;4.80;2.53;;;17.90;99.90;;;;;;4978112;28;20050;-75
2022/09/08 10:32:46;;;;;;;4.75;2.67;;;17.90;99.90;;;;;;4978280;28;20443;-74
2022/09/08 10:35:37;;;;;;;5.55;2.70;;;17.90;99.90;;;;;;4977963;28;20046;-74
2022/09/08 10:38:11;;;;;;;3.40;2.75;;;17.80;99.90;;;;;;4977673;28;20519;-75
2022/09/08 10:41:12;;;;;;;5.65;3.30;;;17.80;99.90;;;;;;4961928;28;20129;-75
2022/09/08 10:43:38;;;;;;;4.07;2.42;;;17.80;99.90;;;;;;4893206;28;20108;-74
2022/09/08 10:46:34;;;;;;;4.60;3.15;;;17.80;99.90;;;;;;4977908;28;20038;-74
2022/09/08 10:49:21;;;;;;;4.25;3.05;;;17.80;99.90;;;;;;4977760;28;20454;-74
2022/09/08 10:52:25;;;;;;;6.50;3.30;;;17.80;99.90;;;;;;4977597;28;20039;-74
2022/09/08 10:54:53;;;;;;;4.97;2.67;;;17.80;99.90;;;;;;4977469;28;20046;-74
2022/09/08 10:57:59;;;;;;;4.53;2.20;;;17.70;99.90;;;;;;4961244;28;20406;-74
2022/09/08 11:00:30;;;;;;;5.28;2.60;;;17.70;99.90;;;;;;4961288;28;20495;-74
2022/09/08 11:03:25;;;;;;;4.90;2.42;;;17.70;99.90;;;;;;4977415;28;20125;-74
2022/09/08 11:06:07;;;;;;;6.35;2.50;;;17.70;99.90;;;;;;4972383;28;20112;-75
2022/09/08 11:08:41;;;;;;;3.47;2.15;;;17.80;99.90;;;;;;4961132;28;20045;-75
2022/09/08 11:11:40;;;;;;;3.50;2.17;;;17.80;99.90;;;;;;4977270;28;20039;-75
2022/09/08 11:14:43;;;;;;;3.33;2.10;;;17.80;99.90;;;;;;4976635;28;20042;-75
2022/09/08 11:17:13;;;;;;;3.38;1.77;;;17.80;99.90;;;;;;4977320;28;20509;-74
2022/09/08 11:19:48;;;;;;;4.47;2.55;;;17.80;99.90;;;;;;4977178;28;20048;-74
2022/09/08 11:22:37;;;;;;;3.30;2.40;;;17.80;99.90;;;;;;4977178;28;20042;-74
2022/09/08 11:25:21;;;;;;;5.32;2.65;;;17.70;99.90;;;;;;4964141;28;20054;-74
2022/09/08 11:27:47;;;;;;;3.15;2.50;;;17.80;99.90;;;;;;4977234;28;20088;-74
2022/09/08 11:30:40;;;;;;;5.93;2.85;;;17.80;99.90;;;;;;4960831;28;20481;-75
2022/09/08 11:33:19;;;;;;;6.78;2.70;;;17.80;99.90;;;;;;4977173;28;20406;-75
2022/09/08 11:36:01;;;;;;;3.92;1.92;;;17.90;99.90;;;;;;4977058;28;20038;-75
2022/09/08 11:39:03;;;;;;;3.95;2.30;;;17.90;99.90;;;;;;4976839;28;20053;-75
2022/09/08 11:41:56;;;;;;;3.33;1.88;;;17.90;99.90;;;;;;4976908;28;20038;-75
2022/09/08 11:44:27;;;;;;;3.63;2.08;;;17.90;99.90;;;;;;4976769;28;20053;-74
2022/09/08 11:47:13;;;;;;;5.35;2.50;;;17.90;99.90;;;;;;4976706;28;20073;-74
2022/09/08 11:50:04;;;;;;;4.05;2.50;;;17.90;99.90;;;;;;4976884;28;20046;-74
2022/09/08 11:52:39;;;;;;;5.97;2.88;;;17.90;99.90;;;;;;4976766;28;20042;-74
2022/09/08 11:55:36;;;;;;;4.55;2.60;;;17.90;99.90;;;;;;4976544;28;20040;-75
2022/09/08 11:58:39;;;;;;;4.47;2.30;;;17.90;99.90;;;;;;4938245;28;20522;-75
2022/09/08 12:01:22;;;;;;;5.57;2.90;;;17.90;99.90;;;;;;4976587;28;20050;-74
2022/09/08 12:04:02;;;;;;;4.50;2.80;;;18.00;99.90;;;;;;4976492;28;20052;-74
2022/09/08 12:06:49;;;;;;;5.38;3.10;;;18.00;99.90;;;;;;4976774;28;20061;-74
2022/09/08 12:09:24;;;;;;;5.55;2.80;;;18.10;99.90;;;;;;4976534;28;20081;-74
2022/09/08 12:12:08;;;;;;;5.72;2.95;;;18.10;99.90;;;;;;4976795;28;20043;-75
2022/09/08 12:15:04;;;;;;;4.30;3.40;;;18.10;99.90;;;;;;4976582;28;20092;-75
2022/09/08 12:17:51;;;;;;;6.30;3.60;;;18.10;99.90;;;;;;4976279;28;20035;-75
2022/09/08 12:20:31;;;;;;;5.72;3.97;;;18.10;99.90;;;;;;4976807;28;20042;-75
2022/09/08 12:23:20;;;;;;;5.85;4.55;;;18.20;99.90;;;;;;4976447;28;20090;-75
2022/09/08 12:26:11;;;;;;;4.97;4.25;;;18.20;99.90;;;;;;4976353;28;20050;-75
2022/09/08 12:29:05;;;;;;;8.27;4.18;;;18.30;99.90;;;;;;4976391;28;20084;-75
2022/09/08 12:31:30;;;;;;;8.18;4.88;;;18.40;99.90;;;;;;4976486;28;20049;-75
2022/09/08 12:34:08;;;;;;;6.40;5.28;;;18.40;99.90;;;;;;4976358;28;20070;-75
2022/09/08 12:36:44;;;;;;;8.57;5.82;;;18.50;99.90;;;;;;4960132;28;20042;-74
2022/09/08 12:39:24;;;;;;;7.63;5.53;;;18.60;99.90;;;;;;4976680;28;20064;-74
2022/09/08 12:42:09;;;;;;;7.53;5.50;;;18.60;99.90;;;;;;4976618;28;20487;-75
2022/09/08 12:44:39;;;;;;;8.05;5.78;;;18.70;99.90;;;;;;4976499;28;20042;-75
2022/09/08 12:47:24;;;;;;;9.60;6.65;;;18.70;99.90;;;;;;4976151;28;20054;-75
2022/09/08 12:50:16;;;;;;;7.60;6.30;;;18.70;99.90;;;;;;4976871;28;20559;-75
2022/09/08 12:52:50;;;;;;;8.48;6.50;;;18.80;99.90;;;;;;4980062;28;20046;-75
2022/09/08 12:55:31;;;;;;;8.55;7.28;;;18.90;99.90;;;;;;4963800;28;20407;-75
2022/09/08 12:58:01;;;;;;;9.50;7.40;;;18.90;99.90;;;;;;4979979;28;20458;-75
2022/09/08 13:00:41;;;;;;;10.50;7.07;;;18.90;99.90;;;;;;4997271;28;20034;-74
2022/09/08 13:03:16;;;;;;;10.40;7.90;;;19.00;99.90;;;;;;4979789;28;20121;-74
2022/09/08 13:06:23;;;;;;;9.48;8.55;;;19.00;99.90;;;;;;4963675;28;20521;-75
2022/09/08 13:08:56;;;;;;;11.68;8.60;;;19.00;99.90;;;;;;4868588;29;20059;-75
2022/09/08 13:11:43;;;;;;;9.93;8.38;;;19.00;99.90;;;;;;4899475;29;20459;-75
2022/09/08 13:14:11;;;;;;;9.80;8.65;;;19.10;99.90;;;;;;4899324;29;20141;-75
2022/09/08 13:16:56;;;;;;;11.27;8.95;;;19.10;99.90;;;;;;4883684;29;20044;-75
2022/09/08 13:19:26;;;;;;;10.55;9.35;;;19.10;99.90;;;;;;4884612;29;20139;-75
2022/09/08 13:22:15;;;;;;;10.68;9.60;;;19.20;99.90;;;;;;4883661;29;20075;-75
2022/09/08 13:25:14;;;;;;;13.02;9.85;;;19.30;99.90;;;;;;4883707;29;20084;-75